Terminal Aerodrome Forecast
Issued by NWS

Home | Current Version | Previous Version | Text Only | Print | Product List | Glossary On
Versions: 1 2 3 4 5 6 7 8 9 10 11 12 13 14 15 16 17 18 19 20 21 22 23 24
000
FTUS45 KGJT 270524
TAFRIL
TAF
KRIL 270524Z 2706/2806 27002KT P6SM BKN250
     FM272000 22004KT P6SM FEW150 BKN250
     FM280000 20004KT P6SM VCSH SCT080 BKN100=

USA.gov is the U.S. government's official web portal to all federal, state and local government web resources and services.